Terminal Aerodrome Forecast
Issued by NWS Cleveland, OH

Home | Current Version | Previous Version | Graphics & Text | Print | Product List | Glossary On
Versions: 1 2 3 4 5 6 7 8 9 10 11 12 13 14 15 16
701
FTUS41 KCLE 201408 AAA
TAFCAK
TAF AMD
KCAK 201408Z 2014/2112 08006KT 4SM BR BKN250
     FM201530 10008KT P6SM BKN250
     FM201700 10008KT P6SM BKN250
     FM210600 14008KT P6SM BKN150=

USA.gov is the U.S. government's official web portal to all federal, state and local government web resources and services.